Time;durP1;ratioP1;P1;durP2;ratioP2;P2;SDS_P1;SDS_P2;PMS_P1;PMS_P2;Temp;Humidity;BMP_temperature;BMP_pressure;BME280_temperature;BME280_humidity;BME280_pressure;Samples;Min_cycle;Max_cycle;Signal;HPM_P1;HPM_P2
2021/12/12 00:00:42;;;;;;;;;;;5.30;99.90;;;;;;8372688;28;19925;-68
2021/12/12 00:04:47;;;;;;;;;;;5.30;99.90;;;;;;8375976;28;19925;-68
2021/12/12 00:08:50;;;;;;;;;;;5.30;99.90;;;;;;8355931;28;20273;-68
2021/12/12 00:12:55;;;;;;;;;;;5.30;99.90;;;;;;8388172;28;19968;-68
2021/12/12 00:16:57;;;;;;;;;;;5.40;99.90;;;;;;8377159;28;20289;-68
2021/12/12 00:20:59;;;;;;;;;;;5.40;99.90;;;;;;8382628;28;19932;-69
2021/12/12 00:25:01;;;;;;;;;;;5.40;99.90;;;;;;8389927;28;19973;-68
2021/12/12 00:29:03;;;;;;;;;;;5.40;99.90;;;;;;8380429;28;19929;-68
2021/12/12 00:33:05;;;;;;;;;;;5.40;99.90;;;;;;8386884;28;19940;-68
2021/12/12 00:37:08;;;;;;;;;;;5.40;99.90;;;;;;8389196;28;20414;-68
2021/12/12 00:41:10;;;;;;;;;;;5.40;99.90;;;;;;8394869;28;19928;-68
2021/12/12 00:45:13;;;;;;;;;;;5.50;99.90;;;;;;8386724;28;20019;-69
2021/12/12 00:49:15;;;;;;;;;;;5.50;99.90;;;;;;8389120;28;19940;-68
2021/12/12 00:53:20;;;;;;;;;;;5.50;99.90;;;;;;8390316;28;20308;-68
2021/12/12 00:57:21;;;;;;;;;;;5.50;99.90;;;;;;8381602;28;20303;-69
2021/12/12 01:01:25;;;;;;;;;;;5.50;99.90;;;;;;8389678;28;19935;-68
2021/12/12 01:05:27;;;;;;;;;;;5.50;99.90;;;;;;8386337;28;20395;-68
2021/12/12 01:09:31;;;;;;;;;;;5.50;99.90;;;;;;8377438;28;19942;-68
2021/12/12 01:13:34;;;;;;;;;;;5.50;99.90;;;;;;8385270;28;20299;-69
2021/12/12 01:17:39;;;;;;;;;;;5.50;99.90;;;;;;8369779;28;19978;-68
2021/12/12 01:21:43;;;;;;;;;;;5.60;99.90;;;;;;8374567;28;20250;-68
2021/12/12 01:25:47;;;;;;;;;;;5.60;99.90;;;;;;8381007;28;19983;-68
2021/12/12 01:29:49;;;;;;;;;;;5.60;99.90;;;;;;8387307;28;19975;-69
2021/12/12 01:33:59;;;;;;;;;;;5.60;99.90;;;;;;8366753;28;19932;-69
2021/12/12 01:42:26;;;;;;;;;;;5.60;99.90;;;;;;8387473;28;20418;-68
2021/12/12 01:46:37;;;;;;;;;;;5.60;99.90;;;;;;8378379;28;20380;-68
2021/12/12 01:50:41;;;;;;;;;;;5.60;99.90;;;;;;8387037;28;19928;-69
2021/12/12 01:54:46;;;;;;;;;;;5.60;99.90;;;;;;8360481;28;19932;-68
2021/12/12 01:58:50;;;;;;;;;;;5.60;99.90;;;;;;8385324;28;20389;-69
2021/12/12 02:02:52;;;;;;;;;;;5.60;99.90;;;;;;8363201;28;19970;-68
2021/12/12 02:06:54;;;;;;;;;;;5.60;99.90;;;;;;8385535;28;19928;-69
2021/12/12 02:10:58;;;;;;;;;;;5.60;99.90;;;;;;8382381;28;19925;-68
2021/12/12 02:15:00;;;;;;;;;;;5.60;99.90;;;;;;8382065;28;20000;-69
2021/12/12 02:19:02;;;;;;;;;;;5.60;99.90;;;;;;8369555;28;19932;-68
2021/12/12 02:36:03;;;;;;;;;;;5.60;99.90;;;;;;8387649;28;19975;-69
2021/12/12 02:40:07;;;;;;;;;;;5.60;99.90;;;;;;8357473;28;20283;-69
2021/12/12 02:44:08;;;;;;;;;;;5.60;99.90;;;;;;8382886;28;19971;-68
2021/12/12 02:48:16;;;;;;;;;;;5.60;99.90;;;;;;8381804;28;20384;-69
2021/12/12 02:52:21;;;;;;;;;;;5.60;99.90;;;;;;8377865;28;19957;-68
2021/12/12 02:56:24;;;;;;;;;;;5.60;99.90;;;;;;8380899;28;20381;-69
2021/12/12 03:00:27;;;;;;;;;;;5.60;99.90;;;;;;8388602;28;19936;-69
2021/12/12 03:04:29;;;;;;;;;;;5.60;99.90;;;;;;8385281;28;19948;-69
2021/12/12 03:08:31;;;;;;;;;;;5.60;99.90;;;;;;8386366;28;19924;-69
2021/12/12 03:12:34;;;;;;;;;;;5.60;99.90;;;;;;8381748;28;19972;-69
2021/12/12 03:16:36;;;;;;;;;;;5.60;99.90;;;;;;8363398;28;19935;-69
2021/12/12 03:20:40;;;;;;;;;;;5.70;99.90;;;;;;8381247;28;20390;-68
2021/12/12 03:24:42;;;;;;;;;;;5.70;99.90;;;;;;8385267;28;20404;-69
2021/12/12 03:28:45;;;;;;;;;;;5.70;99.90;;;;;;8347550;28;19987;-69
2021/12/12 03:32:48;;;;;;;;;;;5.70;99.90;;;;;;8378213;28;20296;-69
2021/12/12 03:36:50;;;;;;;;;;;5.70;99.90;;;;;;8382101;28;19929;-69
2021/12/12 03:40:52;;;;;;;;;;;5.80;99.90;;;;;;8364106;28;20288;-69
2021/12/12 03:44:55;;;;;;;;;;;5.80;99.90;;;;;;8384820;28;19928;-68
2021/12/12 03:48:57;;;;;;;;;;;5.80;99.90;;;;;;8386583;28;19971;-69
2021/12/12 03:52:59;;;;;;;;;;;5.90;99.90;;;;;;8383568;28;19924;-69
2021/12/12 03:57:02;;;;;;;;;;;5.90;99.90;;;;;;8387286;28;19932;-69
2021/12/12 04:01:12;;;;;;;;;;;6.00;99.90;;;;;;8386079;28;19931;-68
2021/12/12 04:05:14;;;;;;;;;;;6.00;99.90;;;;;;8376155;28;20035;-69
2021/12/12 04:09:16;;;;;;;;;;;6.00;99.90;;;;;;8382385;28;20355;-69
2021/12/12 04:13:18;;;;;;;;;;;6.10;99.90;;;;;;8382713;28;20383;-68
2021/12/12 04:17:21;;;;;;;;;;;6.10;99.90;;;;;;8384890;28;19924;-69
2021/12/12 04:21:23;;;;;;;;;;;6.10;99.90;;;;;;8379680;28;19972;-69
2021/12/12 04:25:25;;;;;;;;;;;6.20;99.90;;;;;;8385900;28;19932;-68
2021/12/12 04:29:34;;;;;;;;;;;6.20;99.90;;;;;;8381200;28;19968;-69
2021/12/12 04:33:36;;;;;;;;;;;6.20;99.90;;;;;;8380890;28;19924;-68
2021/12/12 04:37:38;;;;;;;;;;;6.20;99.90;;;;;;8386988;28;19972;-68
2021/12/12 04:41:41;;;;;;;;;;;6.20;99.90;;;;;;8388314;28;19925;-68
2021/12/12 04:45:51;;;;;;;;;;;6.30;99.90;;;;;;8381032;28;20019;-68
2021/12/12 04:49:56;;;;;;;;;;;6.30;99.90;;;;;;8383830;28;19947;-68
2021/12/12 04:54:07;;;;;;;;;;;6.30;99.90;;;;;;8383661;28;19928;-69
2021/12/12 04:58:12;;;;;;;;;;;6.30;99.90;;;;;;8389038;28;20002;-68
2021/12/12 05:02:34;;;;;;;;;;;6.30;99.90;;;;;;8387250;28;20396;-68
2021/12/12 05:06:41;;;;;;;;;;;6.40;99.90;;;;;;8377706;28;19936;-69
2021/12/12 05:10:54;;;;;;;;;;;6.40;99.90;;;;;;8383138;28;19970;-69
2021/12/12 05:14:57;;;;;;;;;;;6.40;99.90;;;;;;8393770;28;19944;-69
2021/12/12 05:19:05;;;;;;;;;;;6.40;99.90;;;;;;8380264;28;19939;-69
2021/12/12 05:23:08;;;;;;;;;;;6.40;99.90;;;;;;8376704;28;19929;-69
2021/12/12 05:27:11;;;;;;;;;;;6.50;99.90;;;;;;8385202;28;19936;-68
2021/12/12 05:31:13;;;;;;;;;;;6.50;99.90;;;;;;8385801;28;19931;-68
2021/12/12 05:35:17;;;;;;;;;;;6.50;99.90;;;;;;8384270;28;19978;-68
2021/12/12 05:39:20;;;;;;;;;;;6.50;99.90;;;;;;8389870;28;19934;-69
2021/12/12 05:43:22;;;;;;;;;;;6.60;99.90;;;;;;8380378;28;19959;-69
2021/12/12 05:47:24;;;;;;;;;;;6.60;99.90;;;;;;8374744;28;19935;-69
2021/12/12 05:51:26;;;;;;;;;;;6.60;99.90;;;;;;8383766;28;19924;-69
2021/12/12 05:55:32;;;;;;;;;;;6.70;99.90;;;;;;8385998;28;19932;-69
2021/12/12 05:59:34;;;;;;;;;;;6.70;99.90;;;;;;8385735;28;19972;-69
2021/12/12 06:03:41;;;;;;;;;;;6.70;99.90;;;;;;8384470;28;19967;-69
2021/12/12 06:07:42;;;;;;;;;;;6.80;99.90;;;;;;8385590;28;20354;-69
2021/12/12 06:11:46;;;;;;;;;;;6.80;99.90;;;;;;8387433;28;19939;-69
2021/12/12 06:15:50;;;;;;;;;;;6.80;99.90;;;;;;8382531;28;20360;-69
2021/12/12 06:19:53;;;;;;;;;;;6.90;99.90;;;;;;8379610;28;19940;-69
2021/12/12 06:23:55;;;;;;;;;;;6.90;99.90;;;;;;8389927;28;20027;-69
2021/12/12 06:27:56;;;;;;;;;;;6.90;99.90;;;;;;8373399;28;19948;-69
2021/12/12 06:31:58;;;;;;;;;;;7.00;99.90;;;;;;8368458;28;19932;-69
2021/12/12 06:36:00;;;;;;;;;;;7.00;99.90;;;;;;8381378;28;19960;-69
2021/12/12 06:40:03;;;;;;;;;;;7.00;99.90;;;;;;8388960;28;20418;-69
2021/12/12 06:44:06;;;;;;;;;;;7.10;99.90;;;;;;8390732;28;19971;-69
2021/12/12 06:48:10;;;;;;;;;;;7.10;99.90;;;;;;8378524;28;20367;-69
2021/12/12 06:52:13;;;;;;;;;;;7.10;99.90;;;;;;8380402;28;19997;-69
2021/12/12 06:56:16;;;;;;;;;;;7.20;99.90;;;;;;8374696;28;20337;-69
2021/12/12 07:00:19;;;;;;;;;;;7.20;99.90;;;;;;8367371;28;20063;-69
2021/12/12 07:04:21;;;;;;;;;;;7.20;99.90;;;;;;8371006;28;19924;-69
2021/12/12 07:08:23;;;;;;;;;;;7.30;99.90;;;;;;8377745;28;19931;-69
2021/12/12 07:12:25;;;;;;;;;;;7.30;99.90;;;;;;8390564;28;20042;-69
2021/12/12 07:16:26;;;;;;;;;;;7.30;99.90;;;;;;8374331;28;19924;-68
2021/12/12 07:20:28;;;;;;;;;;;7.40;99.90;;;;;;8387749;28;19924;-69
2021/12/12 07:24:30;;;;;;;;;;;7.40;99.90;;;;;;8395907;28;19976;-69
2021/12/12 07:28:33;;;;;;;;;;;7.40;99.90;;;;;;8398298;28;19924;-69
2021/12/12 07:32:36;;;;;;;;;;;7.40;99.90;;;;;;8393753;28;19933;-69
2021/12/12 07:36:40;;;;;;;;;;;7.50;99.90;;;;;;8396875;28;19933;-69
2021/12/12 07:40:45;;;;;;;;;;;7.50;99.90;;;;;;8391709;28;20073;-69
2021/12/12 07:44:47;;;;;;;;;;;7.50;99.90;;;;;;8370732;28;19963;-69
2021/12/12 07:48:50;;;;;;;;;;;7.50;99.90;;;;;;8388887;28;20395;-69
2021/12/12 07:52:52;;;;;;;;;;;7.60;99.90;;;;;;8389668;28;20002;-69
2021/12/12 07:56:54;;;;;;;;;;;7.60;99.90;;;;;;8391376;28;19931;-68
2021/12/12 08:00:57;;;;;;;;;;;7.60;99.90;;;;;;8365767;28;19956;-68
2021/12/12 08:04:59;;;;;;;;;;;7.70;99.90;;;;;;8390978;28;19924;-69
2021/12/12 08:09:02;;;;;;;;;;;7.70;99.90;;;;;;8372836;28;20371;-69
2021/12/12 08:13:04;;;;;;;;;;;7.80;99.90;;;;;;8388900;28;19978;-69
2021/12/12 08:17:06;;;;;;;;;;;7.80;99.90;;;;;;8389189;28;19963;-69
2021/12/12 08:21:08;;;;;;;;;;;7.90;99.90;;;;;;8389168;28;19967;-69
2021/12/12 08:25:11;;;;;;;;;;;7.90;99.90;;;;;;8390544;28;19993;-69
2021/12/12 08:29:13;;;;;;;;;;;7.90;99.90;;;;;;8389002;28;19975;-69
2021/12/12 08:33:15;;;;;;;;;;;8.00;99.90;;;;;;8388535;28;19972;-69
2021/12/12 08:37:17;;;;;;;;;;;8.00;99.90;;;;;;8387594;28;20329;-69
2021/12/12 08:41:19;;;;;;;;;;;8.10;99.90;;;;;;8388777;28;19928;-69
2021/12/12 08:45:23;;;;;;;;;;;8.10;99.90;;;;;;8388888;28;19931;-69
2021/12/12 08:49:27;;;;;;;;;;;8.10;99.90;;;;;;8387768;28;20456;-69
2021/12/12 08:53:28;;;;;;;;;;;8.20;99.90;;;;;;8387218;28;20384;-68
2021/12/12 08:57:33;;;;;;;;;;;8.20;99.90;;;;;;8388859;28;19967;-69
2021/12/12 09:01:56;;;;;;;;;;;8.20;99.90;;;;;;8379955;28;19965;-69
2021/12/12 09:05:58;;;;;;;;;;;8.30;99.90;;;;;;8387350;28;19951;-69
2021/12/12 09:10:18;;;;;;;;;;;8.40;99.90;;;;;;8369273;28;20386;-69
2021/12/12 09:14:27;;;;;;;;;;;8.30;99.90;;;;;;8362796;28;19925;-69
2021/12/12 09:19:04;;;;;;;;;;;8.40;99.90;;;;;;8388112;28;19959;-69
2021/12/12 09:23:09;;;;;;;;;;;8.40;99.90;;;;;;8305332;28;19960;-69
2021/12/12 09:27:17;;;;;;;;;;;8.40;99.90;;;;;;8385737;28;19968;-69
2021/12/12 09:31:28;;;;;;;;;;;8.40;99.90;;;;;;8402372;28;19963;-69
2021/12/12 09:35:32;;;;;;;;;;;8.50;99.90;;;;;;8384747;28;19929;-69
2021/12/12 09:39:39;;;;;;;;;;;8.50;99.90;;;;;;8386724;28;19982;-69
2021/12/12 09:43:55;;;;;;;;;;;8.50;99.90;;;;;;8387015;28;20355;-69
2021/12/12 09:47:59;;;;;;;;;;;8.50;99.90;;;;;;8383472;28;20257;-69
2021/12/12 09:52:07;;;;;;;;;;;8.50;99.90;;;;;;8367433;28;19931;-69
2021/12/12 09:56:14;;;;;;;;;;;8.60;99.90;;;;;;8351439;28;19952;-69
2021/12/12 10:00:36;;;;;;;;;;;8.60;99.90;;;;;;8365298;28;19935;-69
2021/12/12 10:04:43;;;;;;;;;;;8.70;99.90;;;;;;8385964;28;19978;-69
2021/12/12 10:09:04;;;;;;;;;;;8.70;99.90;;;;;;8363407;28;19925;-69
2021/12/12 10:13:08;;;;;;;;;;;8.70;99.90;;;;;;8383648;28;19971;-69
2021/12/12 10:17:17;;;;;;;;;;;8.70;99.90;;;;;;8352877;28;20020;-69
2021/12/12 10:21:28;;;;;;;;;;;8.70;99.90;;;;;;8381633;28;19983;-69
2021/12/12 10:25:31;;;;;;;;;;;8.80;99.90;;;;;;8383965;28;19924;-70
2021/12/12 10:29:52;;;;;;;;;;;8.80;99.90;;;;;;8385243;28;19924;-69
2021/12/12 10:33:56;;;;;;;;;;;8.80;99.90;;;;;;8383566;28;20360;-69
2021/12/12 10:38:01;;;;;;;;;;;8.80;99.90;;;;;;8384963;28;19956;-69
2021/12/12 10:42:05;;;;;;;;;;;8.80;99.90;;;;;;8399287;28;19924;-69
2021/12/12 10:46:10;;;;;;;;;;;8.80;99.90;;;;;;8356464;28;19928;-69
2021/12/12 10:50:14;;;;;;;;;;;8.80;99.90;;;;;;8375432;28;20589;-69
2021/12/12 10:54:32;;;;;;;;;;;8.90;99.90;;;;;;8364191;28;19971;-69
2021/12/12 10:58:54;;;;;;;;;;;8.90;99.90;;;;;;8370809;28;19983;-69
2021/12/12 11:03:07;;;;;;;;;;;8.90;99.90;;;;;;8377219;28;19960;-69
2021/12/12 11:07:29;;;;;;;;;;;8.90;99.90;;;;;;8377183;28;19924;-69
2021/12/12 11:11:40;;;;;;;;;;;9.00;99.90;;;;;;8383025;28;20368;-69
2021/12/12 11:15:44;;;;;;;;;;;9.00;99.90;;;;;;8381297;28;20124;-69
2021/12/12 11:19:51;;;;;;;;;;;9.10;99.90;;;;;;8377838;28;20354;-69
2021/12/12 11:24:14;;;;;;;;;;;9.10;99.90;;;;;;8362235;28;20039;-69
2021/12/12 11:28:22;;;;;;;;;;;9.20;99.90;;;;;;8369561;28;19932;-69
2021/12/12 11:32:26;;;;;;;;;;;9.20;99.90;;;;;;8346447;28;20261;-69
2021/12/12 11:36:31;;;;;;;;;;;9.30;99.90;;;;;;8358617;28;20210;-69
2021/12/12 11:40:33;;;;;;;;;;;9.30;99.90;;;;;;8379870;28;19928;-69
2021/12/12 11:44:52;;;;;;;;;;;9.40;99.90;;;;;;8377614;28;20269;-69
2021/12/12 11:49:03;;;;;;;;;;;9.40;99.90;;;;;;8378734;28;19935;-69
2021/12/12 11:53:07;;;;;;;;;;;9.40;99.90;;;;;;8379350;28;20450;-69
2021/12/12 11:57:15;;;;;;;;;;;9.40;99.90;;;;;;8380184;28;19951;-69
2021/12/12 12:01:26;;;;;;;;;;;9.50;99.90;;;;;;8380464;28;20273;-69
2021/12/12 12:05:34;;;;;;;;;;;9.50;99.90;;;;;;8373272;28;19932;-69
2021/12/12 12:09:42;;;;;;;;;;;9.50;99.90;;;;;;8358200;28;19967;-69
2021/12/12 12:13:49;;;;;;;;;;;9.50;99.90;;;;;;8364744;28;20392;-69
2021/12/12 12:17:54;;;;;;;;;;;9.60;99.90;;;;;;8353972;28;19964;-69
2021/12/12 12:22:08;;;;;;;;;;;9.60;99.90;;;;;;8380752;28;19924;-69
2021/12/12 12:30:51;;;;;;;;;;;9.70;99.90;;;;;;8372872;28;19995;-69
2021/12/12 12:35:12;;;;;;;;;;;9.70;99.90;;;;;;8380929;28;19964;-69
2021/12/12 12:39:33;;;;;;;;;;;9.70;99.90;;;;;;8382429;28;19975;-69
2021/12/12 12:43:53;;;;;;;;;;;9.70;99.90;;;;;;8355770;28;20411;-69
2021/12/12 12:48:13;;;;;;;;;;;9.80;99.90;;;;;;8384249;28;20422;-69
2021/12/12 12:52:15;;;;;;;;;;;9.80;99.90;;;;;;8373160;28;20040;-69
2021/12/12 12:56:35;;;;;;;;;;;9.80;99.90;;;;;;8382289;28;19928;-69
2021/12/12 13:00:38;;;;;;;;;;;9.90;99.90;;;;;;8357468;28;20392;-69
2021/12/12 13:05:05;;;;;;;;;;;9.90;99.90;;;;;;8380032;28;19951;-69
2021/12/12 13:09:10;;;;;;;;;;;10.00;99.90;;;;;;8348966;28;19940;-69
2021/12/12 13:13:14;;;;;;;;;;;10.00;99.90;;;;;;8377466;28;19960;-69
2021/12/12 13:17:21;;;;;;;;;;;10.00;99.90;;;;;;8369091;28;19960;-69
2021/12/12 13:21:37;;;;;;;;;;;10.10;99.90;;;;;;8377159;28;20031;-69
2021/12/12 13:25:41;;;;;;;;;;;10.10;99.90;;;;;;8373267;28;19967;-69
2021/12/12 13:30:03;;;;;;;;;;;10.10;99.90;;;;;;8376866;28;19975;-69
2021/12/12 13:34:10;;;;;;;;;;;10.10;99.90;;;;;;8381553;28;19982;-69
2021/12/12 13:38:13;;;;;;;;;;;10.20;99.90;;;;;;8378609;28;20439;-69
2021/12/12 13:42:29;;;;;;;;;;;10.10;99.90;;;;;;8379805;28;20676;-69
2021/12/12 13:46:44;;;;;;;;;;;10.20;99.90;;;;;;8378723;28;19971;-69
2021/12/12 13:50:56;;;;;;;;;;;10.20;99.90;;;;;;8352673;28;19925;-69
2021/12/12 13:55:17;;;;;;;;;;;10.30;99.90;;;;;;8380399;28;20037;-69
2021/12/12 13:59:27;;;;;;;;;;;10.30;99.90;;;;;;8375474;28;19933;-69
2021/12/12 14:03:35;;;;;;;;;;;10.30;99.90;;;;;;8369185;28;19984;-69
2021/12/12 14:07:44;;;;;;;;;;;10.30;99.90;;;;;;8369513;28;19933;-69
2021/12/12 14:11:49;;;;;;;;;;;10.30;99.90;;;;;;8351514;28;19928;-69
2021/12/12 14:15:53;;;;;;;;;;;10.30;99.90;;;;;;8353359;28;19935;-69
2021/12/12 14:20:01;;;;;;;;;;;10.40;99.90;;;;;;8377615;28;20418;-69
2021/12/12 14:24:05;;;;;;;;;;;10.40;99.90;;;;;;8353373;28;19994;-69
2021/12/12 14:28:08;;;;;;;;;;;10.40;99.90;;;;;;8376200;28;19956;-69
2021/12/12 14:32:13;;;;;;;;;;;10.40;99.90;;;;;;8374267;28;19971;-69
2021/12/12 14:36:19;;;;;;;;;;;10.40;99.90;;;;;;8373054;28;21730;-70
2021/12/12 14:40:24;;;;;;;;;;;10.40;99.90;;;;;;8375989;28;20328;-69
2021/12/12 14:44:28;;;;;;;;;;;10.40;99.90;;;;;;8380402;28;19925;-69
2021/12/12 14:48:31;;;;;;;;;;;10.40;99.90;;;;;;8383066;28;19925;-69
2021/12/12 14:52:35;;;;;;;;;;;10.50;99.90;;;;;;8383914;28;19924;-69
2021/12/12 14:56:38;;;;;;;;;;;10.50;99.90;;;;;;8381497;28;19987;-69
2021/12/12 15:00:46;;;;;;;;;;;10.50;99.90;;;;;;8361845;28;19975;-69
2021/12/12 15:04:53;;;;;;;;;;;10.50;99.90;;;;;;8383765;28;19951;-69
2021/12/12 15:09:15;;;;;;;;;;;10.50;99.90;;;;;;8359067;28;20023;-68
2021/12/12 15:13:18;;;;;;;;;;;10.50;99.90;;;;;;8377406;28;20100;-69
2021/12/12 15:17:22;;;;;;;;;;;10.50;99.90;;;;;;8355317;28;20231;-69
2021/12/12 15:21:34;;;;;;;;;;;10.50;99.90;;;;;;8380748;28;19963;-69
2021/12/12 15:25:41;;;;;;;;;;;10.50;99.90;;;;;;8383374;28;19959;-69
2021/12/12 15:29:45;;;;;;;;;;;10.50;99.90;;;;;;8384300;28;19928;-69
2021/12/12 15:33:47;;;;;;;;;;;10.50;99.90;;;;;;8377304;28;19960;-69
2021/12/12 15:37:50;;;;;;;;;;;10.50;99.90;;;;;;8387840;28;19971;-69
2021/12/12 15:41:53;;;;;;;;;;;10.50;99.90;;;;;;8391884;28;19929;-69
2021/12/12 15:45:57;;;;;;;;;;;10.50;99.90;;;;;;8390343;28;19964;-69
2021/12/12 15:49:59;;;;;;;;;;;10.50;99.90;;;;;;8386923;28;20042;-69
2021/12/12 15:54:06;;;;;;;;;;;10.50;99.90;;;;;;8365414;28;21102;-69
2021/12/12 15:58:11;;;;;;;;;;;10.60;99.90;;;;;;8382177;28;19982;-69
2021/12/12 16:02:18;;;;;;;;;;;10.60;99.90;;;;;;8354000;28;20364;-69
2021/12/12 16:06:24;;;;;;;;;;;10.60;99.90;;;;;;8380989;28;20180;-69
2021/12/12 16:10:27;;;;;;;;;;;10.60;99.90;;;;;;8381157;28;19927;-69
2021/12/12 16:14:32;;;;;;;;;;;10.60;99.90;;;;;;8380184;28;19974;-69
2021/12/12 16:19:00;;;;;;;;;;;10.60;99.90;;;;;;8379572;28;19944;-68
2021/12/12 16:23:02;;;;;;;;;;;10.60;99.90;;;;;;8378580;28;19956;-69
2021/12/12 16:27:12;;;;;;;;;;;10.60;99.90;;;;;;8374197;28;19933;-69
2021/12/12 16:31:14;;;;;;;;;;;10.60;99.90;;;;;;8363142;28;20361;-69
2021/12/12 16:35:17;;;;;;;;;;;10.60;99.90;;;;;;8380198;28;20257;-69
2021/12/12 16:39:21;;;;;;;;;;;10.60;99.90;;;;;;8383246;28;19940;-69
2021/12/12 16:43:24;;;;;;;;;;;10.60;99.90;;;;;;8380686;28;20332;-69
2021/12/12 16:47:29;;;;;;;;;;;10.60;99.90;;;;;;8389184;28;19963;-69
2021/12/12 16:51:34;;;;;;;;;;;10.60;99.90;;;;;;8381996;28;19985;-69
2021/12/12 16:55:45;;;;;;;;;;;10.60;99.90;;;;;;8381395;28;19928;-69
2021/12/12 16:59:47;;;;;;;;;;;10.70;99.90;;;;;;8367742;28;20013;-69
2021/12/12 17:03:53;;;;;;;;;;;10.70;99.90;;;;;;8378506;28;20452;-69
2021/12/12 17:08:13;;;;;;;;;;;10.70;99.90;;;;;;8358820;28;19928;-69
2021/12/12 17:12:18;;;;;;;;;;;10.70;99.90;;;;;;8395266;28;20020;-69
2021/12/12 17:16:24;;;;;;;;;;;10.70;99.90;;;;;;8361017;28;19963;-69
2021/12/12 17:20:28;;;;;;;;;;;10.80;99.90;;;;;;8373426;28;19943;-69
2021/12/12 17:24:32;;;;;;;;;;;10.80;99.90;;;;;;8352602;28;20379;-69
2021/12/12 17:28:36;;;;;;;;;;;10.80;99.90;;;;;;8379793;28;19928;-69
2021/12/12 17:32:50;;;;;;;;;;;10.90;99.90;;;;;;8380455;28;20051;-69
2021/12/12 17:37:05;;;;;;;;;;;10.90;99.90;;;;;;8377135;28;20321;-69
2021/12/12 17:41:12;;;;;;;;;;;10.90;99.90;;;;;;8377189;28;19927;-69
2021/12/12 17:45:32;;;;;;;;;;;10.90;99.90;;;;;;8375877;28;19994;-69
2021/12/12 17:49:53;;;;;;;;;;;10.90;99.90;;;;;;8381711;28;19959;-69
2021/12/12 17:54:09;;;;;;;;;;;10.90;99.90;;;;;;8380407;28;20336;-69
2021/12/12 17:58:32;;;;;;;;;;;10.90;99.90;;;;;;8354324;28;19920;-69
2021/12/12 18:02:34;;;;;;;;;;;10.90;99.90;;;;;;8357923;28;20007;-69
2021/12/12 18:06:37;;;;;;;;;;;11.00;99.90;;;;;;8378829;28;20247;-69
2021/12/12 18:10:39;;;;;;;;;;;10.90;99.90;;;;;;8383504;28;19940;-69
2021/12/12 18:14:43;;;;;;;;;;;10.90;99.90;;;;;;8378767;28;20406;-69
2021/12/12 18:18:48;;;;;;;;;;;10.90;99.90;;;;;;8362814;28;19932;-69
2021/12/12 18:22:54;;;;;;;;;;;10.90;99.90;;;;;;8360079;28;19935;-69
2021/12/12 18:27:08;;;;;;;;;;;11.00;99.90;;;;;;8372790;28;19963;-69
2021/12/12 18:31:18;;;;;;;;;;;11.00;99.90;;;;;;8380816;28;20418;-69
2021/12/12 18:35:28;;;;;;;;;;;11.00;99.90;;;;;;8378775;28;20380;-69
2021/12/12 18:39:45;;;;;;;;;;;11.00;99.90;;;;;;8379149;28;20023;-69
2021/12/12 18:43:49;;;;;;;;;;;11.00;99.90;;;;;;8372020;28;19964;-69
2021/12/12 18:47:55;;;;;;;;;;;11.00;99.90;;;;;;8385943;28;20372;-69
2021/12/12 18:52:03;;;;;;;;;;;11.00;99.90;;;;;;8386190;28;19920;-69
2021/12/12 18:56:06;;;;;;;;;;;11.10;99.90;;;;;;8380928;28;19967;-69
2021/12/12 19:00:14;;;;;;;;;;;11.10;99.90;;;;;;8367222;28;19927;-69
2021/12/12 19:04:24;;;;;;;;;;;11.10;99.90;;;;;;8382777;28;19971;-69
2021/12/12 19:08:28;;;;;;;;;;;11.10;99.90;;;;;;8382104;28;19920;-69
2021/12/12 19:12:38;;;;;;;;;;;11.10;99.90;;;;;;8376405;28;19921;-69
2021/12/12 19:16:42;;;;;;;;;;;11.10;99.90;;;;;;8349111;28;20284;-69
2021/12/12 19:20:45;;;;;;;;;;;11.10;99.90;;;;;;8379659;28;19924;-69
2021/12/12 19:24:47;;;;;;;;;;;11.10;99.90;;;;;;8377151;28;19964;-69
2021/12/12 19:28:53;;;;;;;;;;;11.10;99.90;;;;;;8373989;28;20011;-69
2021/12/12 19:32:54;;;;;;;;;;;11.00;99.90;;;;;;8376926;28;20035;-69
2021/12/12 19:36:57;;;;;;;;;;;11.00;99.90;;;;;;8353288;28;19928;-69
2021/12/12 19:41:03;;;;;;;;;;;11.00;99.90;;;;;;8379251;28;19924;-69
2021/12/12 19:45:12;;;;;;;;;;;11.00;99.90;;;;;;8354327;28;19928;-69
2021/12/12 19:49:14;;;;;;;;;;;11.00;99.90;;;;;;8391465;28;19960;-69
2021/12/12 19:53:18;;;;;;;;;;;11.10;99.90;;;;;;8364149;28;19967;-69
2021/12/12 19:57:24;;;;;;;;;;;11.10;99.90;;;;;;8373668;28;19920;-69
2021/12/12 20:01:30;;;;;;;;;;;11.10;99.90;;;;;;8377903;28;20027;-69
2021/12/12 20:05:33;;;;;;;;;;;11.10;99.90;;;;;;8377487;28;19928;-69
2021/12/12 20:09:38;;;;;;;;;;;11.10;99.90;;;;;;8354470;28;20082;-69
2021/12/12 20:13:49;;;;;;;;;;;11.20;99.90;;;;;;8370081;28;20014;-69
2021/12/12 20:17:52;;;;;;;;;;;11.20;99.90;;;;;;8349253;28;20439;-69
2021/12/12 20:21:57;;;;;;;;;;;11.20;99.90;;;;;;8357772;28;20019;-69
2021/12/12 20:26:01;;;;;;;;;;;11.20;99.90;;;;;;8366961;28;19963;-69
2021/12/12 20:30:11;;;;;;;;;;;11.20;99.90;;;;;;8385563;28;20297;-69
2021/12/12 20:34:15;;;;;;;;;;;11.20;99.90;;;;;;8382521;28;20424;-69
2021/12/12 20:38:25;;;;;;;;;;;11.20;99.90;;;;;;8389595;28;19924;-69
2021/12/12 20:42:32;;;;;;;;;;;11.20;99.90;;;;;;8387443;28;20046;-69
2021/12/12 20:46:39;;;;;;;;;;;11.10;99.90;;;;;;8383993;28;20023;-69
2021/12/12 20:50:45;;;;;;;;;;;11.10;99.90;;;;;;8385060;28;19927;-69
2021/12/12 20:54:50;;;;;;;;;;;11.10;99.90;;;;;;8386464;28;19933;-69
2021/12/12 20:58:58;;;;;;;;;;;11.10;99.90;;;;;;8367918;28;20005;-69
2021/12/12 21:03:00;;;;;;;;;;;11.10;99.90;;;;;;8383897;28;19963;-69
2021/12/12 21:07:05;;;;;;;;;;;11.10;99.90;;;;;;8377157;28;19928;-69
2021/12/12 21:11:08;;;;;;;;;;;11.10;99.90;;;;;;8387487;28;19976;-69
2021/12/12 21:15:12;;;;;;;;;;;11.10;99.90;;;;;;8385461;28;20030;-69
2021/12/12 21:19:17;;;;;;;;;;;11.10;99.90;;;;;;8381925;28;19927;-69
2021/12/12 21:23:36;;;;;;;;;;;11.10;99.90;;;;;;8384305;28;19921;-69
2021/12/12 21:27:38;;;;;;;;;;;11.10;99.90;;;;;;8384404;28;19928;-69
2021/12/12 21:31:48;;;;;;;;;;;11.10;99.90;;;;;;8355388;28;20370;-69
2021/12/12 21:35:49;;;;;;;;;;;11.10;99.90;;;;;;8378112;28;19964;-70
2021/12/12 21:39:54;;;;;;;;;;;11.10;99.90;;;;;;8381751;28;19928;-69
2021/12/12 21:43:56;;;;;;;;;;;11.10;99.90;;;;;;8383531;28;20387;-69
2021/12/12 21:47:59;;;;;;;;;;;11.00;99.90;;;;;;8381033;28;19956;-69
2021/12/12 21:52:00;;;;;;;;;;;11.00;99.90;;;;;;8381566;28;19951;-69
2021/12/12 21:56:02;;;;;;;;;;;11.00;99.90;;;;;;8382099;28;20339;-69
2021/12/12 22:00:08;;;;;;;;;;;11.00;99.90;;;;;;8360672;28;21268;-69
2021/12/12 22:04:13;;;;;;;;;;;11.00;99.90;;;;;;8389819;28;20407;-69
2021/12/12 22:08:25;;;;;;;;;;;11.00;99.90;;;;;;8388317;28;19925;-69
2021/12/12 22:12:27;;;;;;;;;;;11.00;99.90;;;;;;8382132;28;19940;-69
2021/12/12 22:16:30;;;;;;;;;;;11.00;99.90;;;;;;8384526;28;19935;-69
2021/12/12 22:20:33;;;;;;;;;;;11.00;99.90;;;;;;8388821;28;19937;-69
2021/12/12 22:24:38;;;;;;;;;;;10.90;99.90;;;;;;8384334;28;19932;-69
2021/12/12 22:28:42;;;;;;;;;;;10.90;99.90;;;;;;8386936;28;19939;-69
2021/12/12 22:32:48;;;;;;;;;;;10.90;99.90;;;;;;8378367;28;19925;-69
2021/12/12 22:36:51;;;;;;;;;;;10.90;99.90;;;;;;8378603;28;19928;-69
2021/12/12 22:40:58;;;;;;;;;;;10.90;99.90;;;;;;8374075;28;19964;-69
2021/12/12 22:45:21;;;;;;;;;;;10.90;99.90;;;;;;8385885;28;19925;-69
2021/12/12 22:49:24;;;;;;;;;;;10.80;99.90;;;;;;8378569;28;20000;-69
2021/12/12 22:53:34;;;;;;;;;;;10.80;99.90;;;;;;8388541;28;19932;-69
2021/12/12 22:57:44;;;;;;;;;;;10.80;99.90;;;;;;8376650;28;19971;-69
2021/12/12 23:02:12;;;;;;;;;;;10.80;99.90;;;;;;8375082;28;19925;-69
2021/12/12 23:06:18;;;;;;;;;;;10.80;99.90;;;;;;8384715;28;19931;-69
2021/12/12 23:10:22;;;;;;;;;;;10.80;99.90;;;;;;8388668;28;20388;-69
2021/12/12 23:14:25;;;;;;;;;;;10.80;99.90;;;;;;8380762;28;20039;-69
2021/12/12 23:18:31;;;;;;;;;;;10.80;99.90;;;;;;8381050;28;19925;-69
2021/12/12 23:22:35;;;;;;;;;;;10.80;99.90;;;;;;8383840;28;19963;-69
2021/12/12 23:26:45;;;;;;;;;;;10.80;99.90;;;;;;8388387;28;19936;-69
2021/12/12 23:30:48;;;;;;;;;;;10.80;99.90;;;;;;8398341;28;19993;-69
2021/12/12 23:34:54;;;;;;;;;;;10.80;99.90;;;;;;8384311;28;20410;-69
2021/12/12 23:38:58;;;;;;;;;;;10.80;99.90;;;;;;8379500;28;19924;-69
2021/12/12 23:43:16;;;;;;;;;;;10.80;99.90;;;;;;8373071;28;19925;-69
2021/12/12 23:47:29;;;;;;;;;;;10.80;99.90;;;;;;8387774;28;19925;-69
2021/12/12 23:51:36;;;;;;;;;;;10.80;99.90;;;;;;8385540;28;20015;-69
2021/12/12 23:55:48;;;;;;;;;;;10.70;99.90;;;;;;8382157;28;19963;-69
